sensor_id;sensor_type;location;lat;lon;timestamp;P1;durP1;ratioP1;P2;durP2;ratioP2
71606;SDS011;60641;53.556;9.914;2023-03-21T00:00:44;13.00;;;7.40;;
71606;SDS011;60641;53.556;9.914;2023-03-21T00:03:20;12.40;;;6.90;;
71606;SDS011;60641;53.556;9.914;2023-03-21T00:05:47;12.50;;;7.40;;
71606;SDS011;60641;53.556;9.914;2023-03-21T00:08:17;12.70;;;7.40;;
71606;SDS011;60641;53.556;9.914;2023-03-21T00:10:43;12.50;;;7.30;;
71606;SDS011;60641;53.556;9.914;2023-03-21T00:13:10;12.80;;;7.80;;
71606;SDS011;60641;53.556;9.914;2023-03-21T00:15:38;13.70;;;7.90;;
71606;SDS011;60641;53.556;9.914;2023-03-21T00:18:18;13.30;;;7.80;;
71606;SDS011;60641;53.556;9.914;2023-03-21T00:20:54;12.20;;;7.60;;
71606;SDS011;60641;53.556;9.914;2023-03-21T00:23:30;12.80;;;8.10;;
71606;SDS011;60641;53.556;9.914;2023-03-21T00:25:58;11.80;;;7.60;;
71606;SDS011;60641;53.556;9.914;2023-03-21T00:28:24;13.30;;;7.80;;
71606;SDS011;60641;53.556;9.914;2023-03-21T00:30:58;15.10;;;8.70;;
71606;SDS011;60641;53.556;9.914;2023-03-21T00:33:25;13.00;;;8.50;;
71606;SDS011;60641;53.556;9.914;2023-03-21T00:35:52;15.00;;;8.80;;
71606;SDS011;60641;53.556;9.914;2023-03-21T00:38:19;15.90;;;9.10;;
71606;SDS011;60641;53.556;9.914;2023-03-21T00:40:46;16.20;;;9.50;;
71606;SDS011;60641;53.556;9.914;2023-03-21T00:43:13;15.70;;;9.00;;
71606;SDS011;60641;53.556;9.914;2023-03-21T00:45:43;14.30;;;9.00;;
71606;SDS011;60641;53.556;9.914;2023-03-21T00:48:09;16.20;;;9.40;;
71606;SDS011;60641;53.556;9.914;2023-03-21T00:50:36;14.10;;;9.30;;
71606;SDS011;60641;53.556;9.914;2023-03-21T00:53:04;15.20;;;9.40;;
71606;SDS011;60641;53.556;9.914;2023-03-21T00:55:31;17.10;;;10.10;;
71606;SDS011;60641;53.556;9.914;2023-03-21T00:57:58;14.80;;;9.50;;
71606;SDS011;60641;53.556;9.914;2023-03-21T01:00:24;17.30;;;10.10;;
71606;SDS011;60641;53.556;9.914;2023-03-21T01:02:51;16.80;;;10.60;;
71606;SDS011;60641;53.556;9.914;2023-03-21T01:05:28;17.30;;;10.70;;
71606;SDS011;60641;53.556;9.914;2023-03-21T01:08:15;17.20;;;10.60;;
71606;SDS011;60641;53.556;9.914;2023-03-21T01:10:43;17.10;;;10.30;;
71606;SDS011;60641;53.556;9.914;2023-03-21T01:13:12;17.60;;;10.90;;
71606;SDS011;60641;53.556;9.914;2023-03-21T01:15:44;17.50;;;10.80;;
71606;SDS011;60641;53.556;9.914;2023-03-21T01:18:12;17.10;;;11.00;;
71606;SDS011;60641;53.556;9.914;2023-03-21T01:20:40;17.70;;;10.70;;
71606;SDS011;60641;53.556;9.914;2023-03-21T01:23:07;17.80;;;11.10;;
71606;SDS011;60641;53.556;9.914;2023-03-21T01:25:34;17.20;;;11.20;;
71606;SDS011;60641;53.556;9.914;2023-03-21T01:28:01;19.00;;;11.40;;
71606;SDS011;60641;53.556;9.914;2023-03-21T01:30:27;18.60;;;11.10;;
71606;SDS011;60641;53.556;9.914;2023-03-21T01:32:53;18.60;;;11.90;;
71606;SDS011;60641;53.556;9.914;2023-03-21T01:35:20;17.10;;;10.90;;
71606;SDS011;60641;53.556;9.914;2023-03-21T01:37:47;18.40;;;11.50;;
71606;SDS011;60641;53.556;9.914;2023-03-21T01:40:15;18.40;;;11.50;;
71606;SDS011;60641;53.556;9.914;2023-03-21T01:42:43;17.40;;;11.70;;
71606;SDS011;60641;53.556;9.914;2023-03-21T01:48:14;19.50;;;11.90;;
71606;SDS011;60641;53.556;9.914;2023-03-21T01:50:40;18.40;;;11.60;;
71606;SDS011;60641;53.556;9.914;2023-03-21T01:53:08;18.50;;;11.50;;
71606;SDS011;60641;53.556;9.914;2023-03-21T01:55:35;17.70;;;11.30;;
71606;SDS011;60641;53.556;9.914;2023-03-21T01:58:02;17.40;;;10.80;;
71606;SDS011;60641;53.556;9.914;2023-03-21T02:00:30;19.70;;;12.30;;
71606;SDS011;60641;53.556;9.914;2023-03-21T02:02:57;19.30;;;12.70;;
71606;SDS011;60641;53.556;9.914;2023-03-21T02:05:37;17.80;;;11.60;;
71606;SDS011;60641;53.556;9.914;2023-03-21T02:08:09;19.20;;;12.10;;
71606;SDS011;60641;53.556;9.914;2023-03-21T02:10:36;18.80;;;12.20;;
71606;SDS011;60641;53.556;9.914;2023-03-21T02:13:03;19.30;;;12.50;;
71606;SDS011;60641;53.556;9.914;2023-03-21T02:15:35;18.90;;;11.70;;
71606;SDS011;60641;53.556;9.914;2023-03-21T02:28:27;19.60;;;12.10;;
71606;SDS011;60641;53.556;9.914;2023-03-21T02:38:52;20.30;;;12.80;;
71606;SDS011;60641;53.556;9.914;2023-03-21T02:41:27;20.40;;;12.40;;
71606;SDS011;60641;53.556;9.914;2023-03-21T02:44:10;19.30;;;12.40;;
71606;SDS011;60641;53.556;9.914;2023-03-21T02:46:51;19.90;;;12.40;;
71606;SDS011;60641;53.556;9.914;2023-03-21T02:49:23;18.60;;;12.10;;
71606;SDS011;60641;53.556;9.914;2023-03-21T02:51:53;20.70;;;12.40;;
71606;SDS011;60641;53.556;9.914;2023-03-21T02:54:22;20.90;;;11.70;;
71606;SDS011;60641;53.556;9.914;2023-03-21T02:56:50;20.90;;;12.90;;
71606;SDS011;60641;53.556;9.914;2023-03-21T02:59:18;20.20;;;12.80;;
71606;SDS011;60641;53.556;9.914;2023-03-21T03:01:46;19.40;;;12.20;;
71606;SDS011;60641;53.556;9.914;2023-03-21T03:17:48;20.40;;;12.70;;
71606;SDS011;60641;53.556;9.914;2023-03-21T03:20:29;20.50;;;12.60;;
71606;SDS011;60641;53.556;9.914;2023-03-21T03:23:07;21.00;;;13.00;;
71606;SDS011;60641;53.556;9.914;2023-03-21T03:28:27;19.70;;;11.90;;
71606;SDS011;60641;53.556;9.914;2023-03-21T03:30:56;20.70;;;12.30;;
71606;SDS011;60641;53.556;9.914;2023-03-21T03:33:24;19.50;;;12.20;;
71606;SDS011;60641;53.556;9.914;2023-03-21T03:35:51;19.60;;;12.10;;
71606;SDS011;60641;53.556;9.914;2023-03-21T03:38:19;21.00;;;13.00;;
71606;SDS011;60641;53.556;9.914;2023-03-21T03:41:00;21.40;;;12.70;;
71606;SDS011;60641;53.556;9.914;2023-03-21T03:43:31;21.50;;;12.90;;
71606;SDS011;60641;53.556;9.914;2023-03-21T03:46:04;20.50;;;13.00;;
71606;SDS011;60641;53.556;9.914;2023-03-21T03:48:40;21.30;;;12.70;;
71606;SDS011;60641;53.556;9.914;2023-03-21T03:51:16;21.40;;;12.20;;
71606;SDS011;60641;53.556;9.914;2023-03-21T03:53:51;18.60;;;11.90;;
71606;SDS011;60641;53.556;9.914;2023-03-21T03:56:21;19.40;;;11.90;;
71606;SDS011;60641;53.556;9.914;2023-03-21T03:58:48;20.10;;;12.10;;
71606;SDS011;60641;53.556;9.914;2023-03-21T04:01:14;21.90;;;12.70;;
71606;SDS011;60641;53.556;9.914;2023-03-21T04:03:42;19.90;;;11.80;;
71606;SDS011;60641;53.556;9.914;2023-03-21T04:06:11;20.70;;;11.90;;
71606;SDS011;60641;53.556;9.914;2023-03-21T04:08:37;21.80;;;12.60;;
71606;SDS011;60641;53.556;9.914;2023-03-21T04:11:04;20.70;;;12.80;;
71606;SDS011;60641;53.556;9.914;2023-03-21T04:13:32;21.00;;;12.80;;
71606;SDS011;60641;53.556;9.914;2023-03-21T04:15:59;20.20;;;12.70;;
71606;SDS011;60641;53.556;9.914;2023-03-21T04:18:25;21.70;;;13.30;;
71606;SDS011;60641;53.556;9.914;2023-03-21T04:20:52;21.10;;;13.20;;
71606;SDS011;60641;53.556;9.914;2023-03-21T04:23:19;21.70;;;13.10;;
71606;SDS011;60641;53.556;9.914;2023-03-21T04:25:45;20.40;;;12.70;;
71606;SDS011;60641;53.556;9.914;2023-03-21T04:28:12;20.70;;;12.70;;
71606;SDS011;60641;53.556;9.914;2023-03-21T04:30:38;21.70;;;13.10;;
71606;SDS011;60641;53.556;9.914;2023-03-21T04:33:06;20.50;;;12.80;;
71606;SDS011;60641;53.556;9.914;2023-03-21T04:35:33;22.10;;;12.90;;
71606;SDS011;60641;53.556;9.914;2023-03-21T04:38:01;19.70;;;12.00;;
71606;SDS011;60641;53.556;9.914;2023-03-21T04:40:27;20.40;;;12.60;;
71606;SDS011;60641;53.556;9.914;2023-03-21T04:42:54;22.70;;;13.60;;
71606;SDS011;60641;53.556;9.914;2023-03-21T04:45:20;21.30;;;12.30;;
71606;SDS011;60641;53.556;9.914;2023-03-21T04:47:47;20.90;;;13.70;;
71606;SDS011;60641;53.556;9.914;2023-03-21T04:50:13;21.80;;;13.30;;
71606;SDS011;60641;53.556;9.914;2023-03-21T04:52:40;21.10;;;12.50;;
71606;SDS011;60641;53.556;9.914;2023-03-21T04:55:07;21.50;;;13.10;;
71606;SDS011;60641;53.556;9.914;2023-03-21T04:57:38;22.40;;;13.00;;
71606;SDS011;60641;53.556;9.914;2023-03-21T05:00:05;22.80;;;14.10;;
71606;SDS011;60641;53.556;9.914;2023-03-21T05:02:36;22.20;;;12.50;;
71606;SDS011;60641;53.556;9.914;2023-03-21T05:05:03;23.20;;;12.90;;
71606;SDS011;60641;53.556;9.914;2023-03-21T05:07:30;21.90;;;13.30;;
71606;SDS011;60641;53.556;9.914;2023-03-21T05:09:57;24.80;;;13.70;;
71606;SDS011;60641;53.556;9.914;2023-03-21T05:12:24;22.60;;;14.10;;
71606;SDS011;60641;53.556;9.914;2023-03-21T05:14:51;22.90;;;13.10;;
71606;SDS011;60641;53.556;9.914;2023-03-21T05:17:17;21.30;;;13.70;;
71606;SDS011;60641;53.556;9.914;2023-03-21T05:19:48;18.80;;;12.40;;
71606;SDS011;60641;53.556;9.914;2023-03-21T05:22:15;20.00;;;12.10;;
71606;SDS011;60641;53.556;9.914;2023-03-21T05:24:44;20.60;;;12.90;;
71606;SDS011;60641;53.556;9.914;2023-03-21T05:27:16;22.30;;;13.20;;
71606;SDS011;60641;53.556;9.914;2023-03-21T05:32:30;18.50;;;12.40;;
71606;SDS011;60641;53.556;9.914;2023-03-21T05:34:56;19.70;;;12.90;;
71606;SDS011;60641;53.556;9.914;2023-03-21T05:37:23;19.90;;;12.50;;
71606;SDS011;60641;53.556;9.914;2023-03-21T05:39:49;19.70;;;10.70;;
71606;SDS011;60641;53.556;9.914;2023-03-21T05:42:16;18.30;;;11.30;;
71606;SDS011;60641;53.556;9.914;2023-03-21T05:44:44;22.70;;;13.40;;
71606;SDS011;60641;53.556;9.914;2023-03-21T05:47:12;19.50;;;12.00;;
71606;SDS011;60641;53.556;9.914;2023-03-21T05:49:39;19.00;;;12.40;;
71606;SDS011;60641;53.556;9.914;2023-03-21T05:52:06;20.20;;;12.80;;
71606;SDS011;60641;53.556;9.914;2023-03-21T05:54:32;20.70;;;12.60;;
71606;SDS011;60641;53.556;9.914;2023-03-21T05:56:59;22.40;;;13.90;;
71606;SDS011;60641;53.556;9.914;2023-03-21T05:59:26;19.80;;;12.80;;
71606;SDS011;60641;53.556;9.914;2023-03-21T06:01:52;20.90;;;13.00;;
71606;SDS011;60641;53.556;9.914;2023-03-21T06:04:19;19.30;;;12.40;;
71606;SDS011;60641;53.556;9.914;2023-03-21T06:06:45;20.30;;;12.70;;
71606;SDS011;60641;53.556;9.914;2023-03-21T06:09:11;19.80;;;12.50;;
71606;SDS011;60641;53.556;9.914;2023-03-21T06:11:39;19.00;;;13.00;;
71606;SDS011;60641;53.556;9.914;2023-03-21T06:14:09;19.60;;;12.70;;
71606;SDS011;60641;53.556;9.914;2023-03-21T06:16:36;20.20;;;12.40;;
71606;SDS011;60641;53.556;9.914;2023-03-21T06:19:02;22.20;;;13.10;;
71606;SDS011;60641;53.556;9.914;2023-03-21T06:21:28;19.50;;;12.10;;
71606;SDS011;60641;53.556;9.914;2023-03-21T06:23:55;19.80;;;13.10;;
71606;SDS011;60641;53.556;9.914;2023-03-21T06:26:21;20.10;;;13.10;;
71606;SDS011;60641;53.556;9.914;2023-03-21T06:28:48;20.30;;;12.20;;
71606;SDS011;60641;53.556;9.914;2023-03-21T06:31:15;21.10;;;13.10;;
71606;SDS011;60641;53.556;9.914;2023-03-21T06:33:42;19.00;;;12.30;;
71606;SDS011;60641;53.556;9.914;2023-03-21T06:36:09;21.90;;;13.00;;
71606;SDS011;60641;53.556;9.914;2023-03-21T06:38:36;22.20;;;12.90;;
71606;SDS011;60641;53.556;9.914;2023-03-21T06:41:03;20.00;;;12.30;;
71606;SDS011;60641;53.556;9.914;2023-03-21T06:43:30;21.40;;;12.90;;
71606;SDS011;60641;53.556;9.914;2023-03-21T06:45:57;19.90;;;12.30;;
71606;SDS011;60641;53.556;9.914;2023-03-21T06:48:23;19.20;;;11.90;;
71606;SDS011;60641;53.556;9.914;2023-03-21T06:50:51;22.70;;;13.30;;
71606;SDS011;60641;53.556;9.914;2023-03-21T06:53:18;19.70;;;12.30;;
71606;SDS011;60641;53.556;9.914;2023-03-21T06:55:49;22.40;;;14.10;;
71606;SDS011;60641;53.556;9.914;2023-03-21T06:58:16;20.00;;;12.80;;
71606;SDS011;60641;53.556;9.914;2023-03-21T07:00:43;22.60;;;14.10;;
71606;SDS011;60641;53.556;9.914;2023-03-21T07:03:10;23.40;;;13.40;;
71606;SDS011;60641;53.556;9.914;2023-03-21T07:05:38;21.70;;;13.10;;
71606;SDS011;60641;53.556;9.914;2023-03-21T07:08:07;23.30;;;14.00;;
71606;SDS011;60641;53.556;9.914;2023-03-21T07:10:38;21.10;;;12.60;;
71606;SDS011;60641;53.556;9.914;2023-03-21T07:13:05;21.80;;;12.60;;
71606;SDS011;60641;53.556;9.914;2023-03-21T07:15:31;20.60;;;12.50;;
71606;SDS011;60641;53.556;9.914;2023-03-21T07:17:59;22.20;;;13.10;;
71606;SDS011;60641;53.556;9.914;2023-03-21T07:20:28;19.60;;;12.50;;
71606;SDS011;60641;53.556;9.914;2023-03-21T07:22:54;21.40;;;11.80;;
71606;SDS011;60641;53.556;9.914;2023-03-21T07:25:22;22.20;;;12.40;;
71606;SDS011;60641;53.556;9.914;2023-03-21T07:27:49;21.70;;;12.00;;
71606;SDS011;60641;53.556;9.914;2023-03-21T07:30:18;18.10;;;11.30;;
71606;SDS011;60641;53.556;9.914;2023-03-21T07:32:45;19.00;;;12.00;;
71606;SDS011;60641;53.556;9.914;2023-03-21T07:35:13;22.10;;;11.90;;
71606;SDS011;60641;53.556;9.914;2023-03-21T07:37:41;23.10;;;12.90;;
71606;SDS011;60641;53.556;9.914;2023-03-21T07:40:08;20.10;;;12.50;;
71606;SDS011;60641;53.556;9.914;2023-03-21T07:42:39;22.80;;;12.50;;
71606;SDS011;60641;53.556;9.914;2023-03-21T07:45:07;22.50;;;13.40;;
71606;SDS011;60641;53.556;9.914;2023-03-21T07:47:34;22.00;;;13.40;;
71606;SDS011;60641;53.556;9.914;2023-03-21T07:50:01;22.40;;;12.50;;
71606;SDS011;60641;53.556;9.914;2023-03-21T07:52:29;23.10;;;13.40;;
71606;SDS011;60641;53.556;9.914;2023-03-21T07:54:58;26.40;;;13.90;;
71606;SDS011;60641;53.556;9.914;2023-03-21T07:57:24;25.50;;;13.40;;
71606;SDS011;60641;53.556;9.914;2023-03-21T07:59:51;26.90;;;13.90;;
71606;SDS011;60641;53.556;9.914;2023-03-21T08:02:17;25.20;;;13.40;;
71606;SDS011;60641;53.556;9.914;2023-03-21T08:04:44;26.20;;;14.50;;
71606;SDS011;60641;53.556;9.914;2023-03-21T08:07:10;22.90;;;13.10;;
71606;SDS011;60641;53.556;9.914;2023-03-21T08:09:37;26.60;;;14.60;;
71606;SDS011;60641;53.556;9.914;2023-03-21T08:12:04;28.70;;;13.90;;
71606;SDS011;60641;53.556;9.914;2023-03-21T08:14:31;26.80;;;14.20;;
71606;SDS011;60641;53.556;9.914;2023-03-21T08:16:58;27.90;;;14.20;;
71606;SDS011;60641;53.556;9.914;2023-03-21T08:19:24;27.60;;;14.70;;
71606;SDS011;60641;53.556;9.914;2023-03-21T08:21:52;26.30;;;13.10;;
71606;SDS011;60641;53.556;9.914;2023-03-21T08:24:18;24.30;;;13.60;;
71606;SDS011;60641;53.556;9.914;2023-03-21T08:26:45;21.90;;;12.20;;
71606;SDS011;60641;53.556;9.914;2023-03-21T08:29:12;26.30;;;14.00;;
71606;SDS011;60641;53.556;9.914;2023-03-21T08:31:39;24.40;;;13.20;;
71606;SDS011;60641;53.556;9.914;2023-03-21T08:34:06;28.20;;;13.60;;
71606;SDS011;60641;53.556;9.914;2023-03-21T08:36:34;24.50;;;11.70;;
71606;SDS011;60641;53.556;9.914;2023-03-21T08:39:02;21.70;;;12.10;;
71606;SDS011;60641;53.556;9.914;2023-03-21T08:41:31;24.10;;;13.60;;
71606;SDS011;60641;53.556;9.914;2023-03-21T08:43:58;23.90;;;13.50;;
71606;SDS011;60641;53.556;9.914;2023-03-21T08:46:24;25.10;;;12.20;;
71606;SDS011;60641;53.556;9.914;2023-03-21T08:48:51;24.10;;;12.40;;
71606;SDS011;60641;53.556;9.914;2023-03-21T08:51:18;22.50;;;12.20;;
71606;SDS011;60641;53.556;9.914;2023-03-21T08:53:45;22.50;;;12.60;;
71606;SDS011;60641;53.556;9.914;2023-03-21T08:56:12;23.30;;;12.40;;
71606;SDS011;60641;53.556;9.914;2023-03-21T08:58:38;25.20;;;12.30;;
71606;SDS011;60641;53.556;9.914;2023-03-21T09:01:05;24.80;;;12.70;;
71606;SDS011;60641;53.556;9.914;2023-03-21T09:03:36;23.40;;;12.60;;
71606;SDS011;60641;53.556;9.914;2023-03-21T09:06:03;24.80;;;13.00;;
71606;SDS011;60641;53.556;9.914;2023-03-21T09:08:30;23.50;;;13.00;;
71606;SDS011;60641;53.556;9.914;2023-03-21T09:10:56;26.10;;;12.60;;
71606;SDS011;60641;53.556;9.914;2023-03-21T09:13:23;24.90;;;13.30;;
71606;SDS011;60641;53.556;9.914;2023-03-21T09:15:49;27.30;;;13.70;;
71606;SDS011;60641;53.556;9.914;2023-03-21T09:18:16;25.90;;;13.30;;
71606;SDS011;60641;53.556;9.914;2023-03-21T09:20:44;28.30;;;13.60;;
71606;SDS011;60641;53.556;9.914;2023-03-21T09:23:13;26.80;;;13.80;;
71606;SDS011;60641;53.556;9.914;2023-03-21T09:25:40;28.20;;;13.60;;
71606;SDS011;60641;53.556;9.914;2023-03-21T09:28:07;27.70;;;13.90;;
71606;SDS011;60641;53.556;9.914;2023-03-21T09:30:35;27.50;;;14.40;;
71606;SDS011;60641;53.556;9.914;2023-03-21T09:33:03;30.30;;;14.50;;
71606;SDS011;60641;53.556;9.914;2023-03-21T09:35:31;29.40;;;13.80;;
71606;SDS011;60641;53.556;9.914;2023-03-21T09:37:58;30.20;;;14.30;;
71606;SDS011;60641;53.556;9.914;2023-03-21T09:48:45;30.00;;;14.00;;
71606;SDS011;60641;53.556;9.914;2023-03-21T09:51:19;30.30;;;13.70;;
71606;SDS011;60641;53.556;9.914;2023-03-21T09:53:47;26.10;;;13.30;;
71606;SDS011;60641;53.556;9.914;2023-03-21T09:56:15;26.60;;;13.60;;
71606;SDS011;60641;53.556;9.914;2023-03-21T09:58:43;25.20;;;12.90;;
71606;SDS011;60641;53.556;9.914;2023-03-21T10:01:16;25.80;;;12.40;;
71606;SDS011;60641;53.556;9.914;2023-03-21T10:03:52;24.20;;;12.70;;
71606;SDS011;60641;53.556;9.914;2023-03-21T10:06:19;25.60;;;13.20;;
71606;SDS011;60641;53.556;9.914;2023-03-21T10:08:54;24.10;;;12.70;;
71606;SDS011;60641;53.556;9.914;2023-03-21T10:11:25;21.50;;;12.30;;
71606;SDS011;60641;53.556;9.914;2023-03-21T10:14:04;22.60;;;11.60;;
71606;SDS011;60641;53.556;9.914;2023-03-21T10:16:34;22.80;;;12.20;;
71606;SDS011;60641;53.556;9.914;2023-03-21T10:19:09;20.30;;;11.30;;
71606;SDS011;60641;53.556;9.914;2023-03-21T10:21:38;21.40;;;11.20;;
71606;SDS011;60641;53.556;9.914;2023-03-21T10:24:10;20.40;;;11.50;;
71606;SDS011;60641;53.556;9.914;2023-03-21T10:26:38;19.20;;;10.30;;
71606;SDS011;60641;53.556;9.914;2023-03-21T10:29:05;20.10;;;11.20;;
71606;SDS011;60641;53.556;9.914;2023-03-21T10:31:31;18.30;;;10.30;;
71606;SDS011;60641;53.556;9.914;2023-03-21T10:34:01;19.40;;;10.50;;
71606;SDS011;60641;53.556;9.914;2023-03-21T10:36:30;21.70;;;11.30;;
71606;SDS011;60641;53.556;9.914;2023-03-21T10:39:05;19.60;;;10.40;;
71606;SDS011;60641;53.556;9.914;2023-03-21T10:41:33;23.60;;;10.90;;
71606;SDS011;60641;53.556;9.914;2023-03-21T10:44:07;16.20;;;9.30;;
71606;SDS011;60641;53.556;9.914;2023-03-21T10:46:37;18.50;;;10.70;;
71606;SDS011;60641;53.556;9.914;2023-03-21T10:49:03;19.40;;;9.90;;
71606;SDS011;60641;53.556;9.914;2023-03-21T10:51:34;19.00;;;10.40;;
71606;SDS011;60641;53.556;9.914;2023-03-21T10:54:05;19.10;;;10.30;;
71606;SDS011;60641;53.556;9.914;2023-03-21T10:56:37;19.50;;;10.60;;
71606;SDS011;60641;53.556;9.914;2023-03-21T10:59:09;18.10;;;10.60;;
71606;SDS011;60641;53.556;9.914;2023-03-21T11:01:42;21.70;;;11.50;;
71606;SDS011;60641;53.556;9.914;2023-03-21T11:04:14;21.00;;;11.20;;
71606;SDS011;60641;53.556;9.914;2023-03-21T11:06:49;21.70;;;11.00;;
71606;SDS011;60641;53.556;9.914;2023-03-21T11:09:21;21.40;;;11.20;;
71606;SDS011;60641;53.556;9.914;2023-03-21T11:14:34;25.10;;;12.00;;
71606;SDS011;60641;53.556;9.914;2023-03-21T11:19:53;24.50;;;13.10;;
71606;SDS011;60641;53.556;9.914;2023-03-21T11:22:24;23.40;;;12.20;;
71606;SDS011;60641;53.556;9.914;2023-03-21T11:24:53;24.10;;;11.90;;
71606;SDS011;60641;53.556;9.914;2023-03-21T11:27:24;22.90;;;12.30;;
71606;SDS011;60641;53.556;9.914;2023-03-21T11:29:55;26.60;;;12.20;;
71606;SDS011;60641;53.556;9.914;2023-03-21T11:32:32;21.90;;;11.10;;
71606;SDS011;60641;53.556;9.914;2023-03-21T11:35:03;23.30;;;11.40;;
71606;SDS011;60641;53.556;9.914;2023-03-21T11:37:32;21.40;;;11.80;;
71606;SDS011;60641;53.556;9.914;2023-03-21T11:42:40;19.40;;;10.10;;
71606;SDS011;60641;53.556;9.914;2023-03-21T11:47:39;21.20;;;10.90;;
71606;SDS011;60641;53.556;9.914;2023-03-21T11:50:49;18.10;;;9.30;;
71606;SDS011;60641;53.556;9.914;2023-03-21T12:01:36;17.60;;;9.50;;
71606;SDS011;60641;53.556;9.914;2023-03-21T12:07:01;18.90;;;9.10;;
71606;SDS011;60641;53.556;9.914;2023-03-21T12:09:39;16.50;;;7.80;;
71606;SDS011;60641;53.556;9.914;2023-03-21T12:12:30;16.80;;;8.80;;
71606;SDS011;60641;53.556;9.914;2023-03-21T12:15:04;15.10;;;8.10;;
71606;SDS011;60641;53.556;9.914;2023-03-21T12:20:59;13.30;;;7.20;;
71606;SDS011;60641;53.556;9.914;2023-03-21T12:26:18;15.30;;;8.00;;
71606;SDS011;60641;53.556;9.914;2023-03-21T12:28:57;15.40;;;7.60;;
71606;SDS011;60641;53.556;9.914;2023-03-21T12:32:13;12.50;;;6.70;;
71606;SDS011;60641;53.556;9.914;2023-03-21T12:39:54;12.20;;;6.40;;
71606;SDS011;60641;53.556;9.914;2023-03-21T12:42:39;14.70;;;5.90;;
71606;SDS011;60641;53.556;9.914;2023-03-21T12:45:38;12.50;;;6.10;;
71606;SDS011;60641;53.556;9.914;2023-03-21T12:50:56;12.50;;;6.30;;
71606;SDS011;60641;53.556;9.914;2023-03-21T12:55:53;14.00;;;6.80;;
71606;SDS011;60641;53.556;9.914;2023-03-21T12:58:22;12.30;;;6.30;;
71606;SDS011;60641;53.556;9.914;2023-03-21T13:00:50;12.50;;;5.60;;
71606;SDS011;60641;53.556;9.914;2023-03-21T13:03:20;10.80;;;6.00;;
71606;SDS011;60641;53.556;9.914;2023-03-21T13:05:51;12.10;;;6.60;;
71606;SDS011;60641;53.556;9.914;2023-03-21T13:08:41;12.50;;;6.70;;
71606;SDS011;60641;53.556;9.914;2023-03-21T13:11:10;13.00;;;6.40;;
71606;SDS011;60641;53.556;9.914;2023-03-21T13:21:26;11.20;;;6.30;;
71606;SDS011;60641;53.556;9.914;2023-03-21T13:26:31;13.00;;;6.60;;
71606;SDS011;60641;53.556;9.914;2023-03-21T13:28:59;12.90;;;5.80;;
71606;SDS011;60641;53.556;9.914;2023-03-21T13:31:27;12.70;;;6.20;;
71606;SDS011;60641;53.556;9.914;2023-03-21T13:33:54;12.90;;;6.10;;
71606;SDS011;60641;53.556;9.914;2023-03-21T13:36:25;11.80;;;6.20;;
71606;SDS011;60641;53.556;9.914;2023-03-21T13:38:57;10.90;;;5.60;;
71606;SDS011;60641;53.556;9.914;2023-03-21T13:41:39;11.80;;;5.80;;
71606;SDS011;60641;53.556;9.914;2023-03-21T13:50:49;11.60;;;5.60;;
71606;SDS011;60641;53.556;9.914;2023-03-21T13:55:29;10.30;;;5.50;;
71606;SDS011;60641;53.556;9.914;2023-03-21T13:57:56;11.70;;;5.40;;
71606;SDS011;60641;53.556;9.914;2023-03-21T14:00:26;11.30;;;6.00;;
71606;SDS011;60641;53.556;9.914;2023-03-21T14:02:56;10.30;;;5.90;;
71606;SDS011;60641;53.556;9.914;2023-03-21T14:05:38;11.30;;;5.80;;
71606;SDS011;60641;53.556;9.914;2023-03-21T14:08:06;12.30;;;5.60;;
71606;SDS011;60641;53.556;9.914;2023-03-21T14:10:36;13.00;;;5.80;;
71606;SDS011;60641;53.556;9.914;2023-03-21T14:13:05;12.60;;;5.80;;
71606;SDS011;60641;53.556;9.914;2023-03-21T14:15:39;10.80;;;5.60;;
71606;SDS011;60641;53.556;9.914;2023-03-21T14:18:13;12.00;;;5.40;;
71606;SDS011;60641;53.556;9.914;2023-03-21T14:20:41;11.50;;;5.70;;
71606;SDS011;60641;53.556;9.914;2023-03-21T14:23:17;11.30;;;5.80;;
71606;SDS011;60641;53.556;9.914;2023-03-21T14:25:44;11.90;;;6.00;;
71606;SDS011;60641;53.556;9.914;2023-03-21T14:28:17;10.80;;;6.00;;
71606;SDS011;60641;53.556;9.914;2023-03-21T14:30:49;10.20;;;5.60;;
71606;SDS011;60641;53.556;9.914;2023-03-21T14:36:06;11.60;;;5.60;;
71606;SDS011;60641;53.556;9.914;2023-03-21T14:38:40;13.40;;;6.40;;
71606;SDS011;60641;53.556;9.914;2023-03-21T14:41:20;11.70;;;6.10;;
71606;SDS011;60641;53.556;9.914;2023-03-21T14:46:39;11.30;;;6.10;;
71606;SDS011;60641;53.556;9.914;2023-03-21T14:49:10;11.20;;;6.30;;
71606;SDS011;60641;53.556;9.914;2023-03-21T14:51:38;12.20;;;6.30;;
71606;SDS011;60641;53.556;9.914;2023-03-21T14:54:08;11.40;;;6.20;;
71606;SDS011;60641;53.556;9.914;2023-03-21T14:56:37;12.30;;;6.40;;
71606;SDS011;60641;53.556;9.914;2023-03-21T14:59:04;12.20;;;6.50;;
71606;SDS011;60641;53.556;9.914;2023-03-21T15:01:31;10.50;;;5.70;;
71606;SDS011;60641;53.556;9.914;2023-03-21T15:04:00;10.00;;;5.60;;
71606;SDS011;60641;53.556;9.914;2023-03-21T15:06:29;10.40;;;5.70;;
71606;SDS011;60641;53.556;9.914;2023-03-21T15:09:01;11.00;;;6.00;;
71606;SDS011;60641;53.556;9.914;2023-03-21T15:11:38;10.60;;;6.00;;
71606;SDS011;60641;53.556;9.914;2023-03-21T15:14:06;13.20;;;6.60;;
71606;SDS011;60641;53.556;9.914;2023-03-21T15:16:34;10.80;;;5.40;;
71606;SDS011;60641;53.556;9.914;2023-03-21T15:19:00;10.10;;;5.30;;
71606;SDS011;60641;53.556;9.914;2023-03-21T15:21:31;10.80;;;5.10;;
71606;SDS011;60641;53.556;9.914;2023-03-21T15:24:05;11.80;;;5.50;;
71606;SDS011;60641;53.556;9.914;2023-03-21T15:26:55;11.40;;;5.30;;
71606;SDS011;60641;53.556;9.914;2023-03-21T15:29:24;10.10;;;5.20;;
71606;SDS011;60641;53.556;9.914;2023-03-21T15:31:52;11.60;;;5.40;;
71606;SDS011;60641;53.556;9.914;2023-03-21T15:34:22;10.60;;;5.70;;
71606;SDS011;60641;53.556;9.914;2023-03-21T15:36:53;10.20;;;5.20;;
71606;SDS011;60641;53.556;9.914;2023-03-21T15:39:22;10.70;;;4.80;;
71606;SDS011;60641;53.556;9.914;2023-03-21T15:42:00;10.50;;;5.10;;
71606;SDS011;60641;53.556;9.914;2023-03-21T15:44:46;11.10;;;4.90;;
71606;SDS011;60641;53.556;9.914;2023-03-21T15:47:19;9.10;;;4.30;;
71606;SDS011;60641;53.556;9.914;2023-03-21T15:50:01;9.30;;;4.70;;
71606;SDS011;60641;53.556;9.914;2023-03-21T15:52:33;9.70;;;4.50;;
71606;SDS011;60641;53.556;9.914;2023-03-21T15:55:01;9.70;;;4.70;;
71606;SDS011;60641;53.556;9.914;2023-03-21T15:57:28;10.50;;;4.80;;
71606;SDS011;60641;53.556;9.914;2023-03-21T16:00:03;9.60;;;4.40;;
71606;SDS011;60641;53.556;9.914;2023-03-21T16:02:37;10.00;;;4.50;;
71606;SDS011;60641;53.556;9.914;2023-03-21T16:05:26;10.20;;;4.30;;
71606;SDS011;60641;53.556;9.914;2023-03-21T16:07:57;9.90;;;4.10;;
71606;SDS011;60641;53.556;9.914;2023-03-21T16:10:44;9.90;;;4.30;;
71606;SDS011;60641;53.556;9.914;2023-03-21T16:13:11;9.40;;;4.20;;
71606;SDS011;60641;53.556;9.914;2023-03-21T16:15:41;9.10;;;4.20;;
71606;SDS011;60641;53.556;9.914;2023-03-21T16:18:11;8.80;;;4.10;;
71606;SDS011;60641;53.556;9.914;2023-03-21T16:20:41;9.20;;;4.40;;
71606;SDS011;60641;53.556;9.914;2023-03-21T16:23:09;8.50;;;4.10;;
71606;SDS011;60641;53.556;9.914;2023-03-21T16:25:40;10.30;;;4.00;;
71606;SDS011;60641;53.556;9.914;2023-03-21T16:28:11;9.40;;;3.70;;
71606;SDS011;60641;53.556;9.914;2023-03-21T16:30:39;8.30;;;3.80;;
71606;SDS011;60641;53.556;9.914;2023-03-21T16:33:09;9.20;;;3.70;;